Time;durP1;ratioP1;P1;durP2;ratioP2;P2;SDS_P1;SDS_P2;PMS_P1;PMS_P2;Temp;Humidity;BMP_temperature;BMP_pressure;BME280_temperature;BME280_humidity;BME280_pressure;Samples;Min_cycle;Max_cycle;Signal;HPM_P1;HPM_P2
2021/04/13 00:01:10;;;;;;;10.85;7.18;;;0.90;99.90;;;;;;6128410;29;20126;-78
2021/04/13 00:04:15;;;;;;;9.68;7.55;;;0.20;99.90;;;;;;6144100;29;20035;-78
2021/04/13 00:07:16;;;;;;;9.93;7.50;;;0.70;99.90;;;;;;6127956;29;20058;-78
2021/04/13 00:10:19;;;;;;;10.23;8.13;;;0.20;99.90;;;;;;6127982;29;20121;-80
2021/04/13 00:13:21;;;;;;;10.88;7.75;;;0.20;99.90;;;;;;6128066;29;20426;-78
2021/04/13 00:16:23;;;;;;;11.60;7.38;;;0.10;99.90;;;;;;6127948;29;20086;-78
2021/04/13 00:19:30;;;;;;;9.48;7.63;;;1.20;99.90;;;;;;6147521;28;20037;-79
2021/04/13 00:22:30;;;;;;;10.20;7.38;;;0.10;99.90;;;;;;6186284;28;20472;-80
2021/04/13 00:25:37;;;;;;;9.52;7.95;;;0.40;99.90;;;;;;6217458;28;20079;-80
2021/04/13 00:28:40;;;;;;;10.07;8.70;;;0.00;99.90;;;;;;6217628;28;20037;-80
2021/04/13 00:31:45;;;;;;;10.73;7.55;;;0.10;99.90;;;;;;6218885;28;20393;-80
2021/04/13 00:37:48;;;;;;;10.73;7.38;;;0.90;99.90;;;;;;6217351;28;20121;-78
2021/04/13 00:40:49;;;;;;;10.00;7.63;;;0.70;99.90;;;;;;6217157;28;20067;-78
2021/04/13 00:44:04;;;;;;;10.52;7.80;;;-0.10;99.90;;;;;;6217279;28;20105;-78
2021/04/13 00:47:21;;;;;;;10.68;7.18;;;0.00;99.90;;;;;;6217169;28;20021;-78
2021/04/13 00:50:42;;;;;;;8.65;6.60;;;-0.40;99.90;;;;;;6217136;28;20029;-79
2021/04/13 00:53:43;;;;;;;10.18;6.88;;;-0.40;99.90;;;;;;6216979;28;20389;-80
2021/04/13 00:56:44;;;;;;;10.55;7.45;;;-0.40;99.90;;;;;;6184654;28;20049;-78
2021/04/13 00:59:44;;;;;;;11.25;7.32;;;-0.50;99.90;;;;;;6216800;28;20516;-80
2021/04/13 01:02:45;;;;;;;9.88;7.63;;;-0.20;99.90;;;;;;6216891;28;20136;-80
2021/04/13 01:05:54;;;;;;;8.98;6.88;;;-0.60;99.90;;;;;;6216822;28;20045;-80
2021/04/13 01:09:01;;;;;;;8.55;6.45;;;-0.30;99.90;;;;;;6185671;28;20500;-78
2021/04/13 01:12:08;;;;;;;11.52;7.57;;;-0.60;99.90;;;;;;6216909;28;20037;-80
2021/04/13 01:15:11;;;;;;;11.68;7.22;;;-0.30;99.90;;;;;;6200164;28;20091;-80
2021/04/13 01:18:34;;;;;;;10.85;7.25;;;-0.30;99.90;;;;;;6217047;28;20030;-77
2021/04/13 01:22:12;;;;;;;10.18;8.13;;;-0.50;99.90;;;;;;6201108;28;20412;-79
2021/04/13 01:25:27;;;;;;;10.25;7.72;;;-0.60;99.90;;;;;;6216703;28;20088;-80
2021/04/13 01:28:29;;;;;;;8.05;6.65;;;-0.60;99.90;;;;;;6200501;28;20069;-80
2021/04/13 01:31:48;;;;;;;9.82;7.68;;;-0.40;99.90;;;;;;6187574;28;20367;-78
2021/04/13 01:35:02;;;;;;;8.63;6.68;;;-0.60;99.90;;;;;;6194127;28;20038;-77
2021/04/13 01:44:18;;;;;;;10.68;7.05;;;-0.60;99.90;;;;;;6223058;28;20620;-78
2021/04/13 01:47:21;;;;;;;9.77;7.88;;;0.80;99.90;;;;;;6221380;28;20030;-80
2021/04/13 01:50:24;;;;;;;11.40;7.03;;;-0.10;99.90;;;;;;6214587;28;20083;-78
2021/04/13 01:53:26;;;;;;;9.90;7.03;;;;;;;;;;6190092;28;20029;-78
2021/04/13 01:56:36;;;;;;;10.63;7.37;;;-0.40;99.90;;;;;;6221094;28;20026;-78
2021/04/13 01:59:42;;;;;;;10.13;7.47;;;-0.50;99.90;;;;;;6216809;28;20030;-80
2021/04/13 02:02:51;;;;;;;9.10;7.38;;;0.70;99.90;;;;;;6211426;28;20034;-80
2021/04/13 02:05:54;;;;;;;10.75;7.97;;;-0.20;99.90;;;;;;6220712;28;20560;-80
2021/04/13 02:09:04;;;;;;;8.85;7.10;;;-0.10;99.90;;;;;;6220628;28;20027;-78
2021/04/13 02:12:09;;;;;;;9.38;7.10;;;0.20;99.90;;;;;;6220870;28;20089;-80
2021/04/13 02:15:29;;;;;;;9.25;7.05;;;-0.40;99.90;;;;;;6220541;28;20392;-80
2021/04/13 02:18:39;;;;;;;9.88;7.18;;;0.90;99.90;;;;;;6204308;28;20042;-78
2021/04/13 02:21:43;;;;;;;11.90;7.50;;;-0.50;99.90;;;;;;6220833;28;20034;-78
2021/04/13 02:24:44;;;;;;;10.07;7.18;;;;;;;;;;6220606;28;20026;-80
2021/04/13 02:27:46;;;;;;;9.10;7.57;;;-0.60;99.90;;;;;;6222231;28;20036;-80
2021/04/13 02:30:46;;;;;;;8.70;6.80;;;-0.50;99.90;;;;;;6219807;28;20058;-80
2021/04/13 02:33:47;;;;;;;9.45;6.57;;;-0.10;99.90;;;;;;6204063;28;20483;-78
2021/04/13 02:37:09;;;;;;;9.40;7.68;;;-0.50;99.90;;;;;;6211346;28;20381;-80
2021/04/13 02:40:12;;;;;;;9.48;7.07;;;-0.60;99.90;;;;;;6186916;28;20050;-79
2021/04/13 02:43:22;;;;;;;11.48;7.72;;;-0.60;99.90;;;;;;6218673;28;20137;-78
2021/04/13 02:46:27;;;;;;;12.80;7.20;;;-0.70;99.90;;;;;;6204653;28;20042;-78
2021/04/13 02:49:28;;;;;;;10.70;7.30;;;-0.50;99.90;;;;;;6219652;28;20033;-80
2021/04/13 02:52:34;;;;;;;9.82;7.50;;;0.50;99.90;;;;;;6219587;28;20041;-80
2021/04/13 02:55:37;;;;;;;10.88;7.30;;;-0.40;99.90;;;;;;6219089;28;20368;-80
2021/04/13 02:58:53;;;;;;;9.05;7.10;;;-0.40;99.90;;;;;;6219922;28;20077;-78
2021/04/13 03:02:06;;;;;;;10.50;7.43;;;-0.20;99.90;;;;;;6220764;28;20037;-80
2021/04/13 03:05:07;;;;;;;9.35;7.28;;;0.00;99.90;;;;;;6221063;28;20080;-79
2021/04/13 03:08:14;;;;;;;8.38;6.95;;;-0.20;99.90;;;;;;6203279;28;20502;-78
2021/04/13 03:11:23;;;;;;;12.48;8.20;;;0.10;99.90;;;;;;6187991;28;20096;-78
2021/04/13 03:14:24;;;;;;;8.82;7.28;;;0.10;99.90;;;;;;6219035;28;20451;-79
2021/04/13 03:17:29;;;;;;;11.93;8.05;;;0.30;99.90;;;;;;6219089;28;20088;-78
2021/04/13 03:20:40;;;;;;;11.75;7.10;;;0.40;99.90;;;;;;6219022;28;20033;-77
2021/04/13 03:23:40;;;;;;;12.35;7.88;;;0.40;99.90;;;;;;6219742;28;20026;-80
2021/04/13 03:26:52;;;;;;;11.32;7.18;;;-0.10;99.90;;;;;;6218876;28;20030;-78
2021/04/13 03:30:13;;;;;;;9.83;6.90;;;0.00;99.90;;;;;;6219167;28;20092;-80
2021/04/13 03:33:18;;;;;;;16.42;7.53;;;0.00;99.90;;;;;;6219306;28;20033;-80
2021/04/13 03:36:21;;;;;;;8.98;7.15;;;0.00;99.90;;;;;;6218836;28;20065;-80
2021/04/13 03:39:43;;;;;;;9.73;7.25;;;1.40;99.90;;;;;;6202610;28;20034;-79
2021/04/13 03:42:44;;;;;;;9.73;7.20;;;0.80;99.90;;;;;;6218928;28;20472;-78
2021/04/13 03:45:44;;;;;;;10.07;7.07;;;-0.10;99.90;;;;;;6218974;28;20034;-78
2021/04/13 03:48:47;;;;;;;8.70;6.82;;;1.30;99.90;;;;;;6218595;28;20026;-80
2021/04/13 03:51:57;;;;;;;9.25;6.97;;;0.40;99.90;;;;;;6218342;28;20057;-78
2021/04/13 03:55:10;;;;;;;9.38;7.47;;;0.00;99.90;;;;;;6218270;28;20079;-78
2021/04/13 03:58:16;;;;;;;10.45;7.38;;;0.00;99.90;;;;;;6218666;28;20056;-78
2021/04/13 04:01:20;;;;;;;9.18;7.28;;;1.10;99.90;;;;;;6218125;28;20384;-78
2021/04/13 04:04:21;;;;;;;11.32;7.10;;;0.30;99.90;;;;;;6202255;28;20503;-80
2021/04/13 04:07:34;;;;;;;10.55;7.15;;;0.00;99.90;;;;;;6218237;28;20574;-80
2021/04/13 04:10:35;;;;;;;;;;;1.20;99.90;;;;;;6218885;28;20026;-77
2021/04/13 04:13:45;;;;;;;9.40;7.32;;;0.20;99.90;;;;;;6220050;28;19906;-78
2021/04/13 04:16:46;;;;;;;8.63;7.20;;;1.20;99.90;;;;;;6217820;28;20030;-77
2021/04/13 04:20:00;;;;;;;16.88;13.02;;;1.30;99.90;;;;;;6201526;28;20041;-80
2021/04/13 04:23:01;;;;;;;13.10;8.98;;;0.70;99.90;;;;;;6217804;28;20026;-78
2021/04/13 04:26:05;;;;;;;9.43;7.38;;;0.30;99.90;;;;;;6193279;28;20099;-78
2021/04/13 04:29:33;;;;;;;9.25;7.55;;;0.40;99.90;;;;;;6186318;28;20037;-78
2021/04/13 04:32:34;;;;;;;7.78;6.45;;;0.30;99.90;;;;;;6217268;28;20120;-78
2021/04/13 04:35:41;;;;;;;8.10;6.75;;;1.10;99.90;;;;;;6219031;28;20396;-78
2021/04/13 04:38:42;;;;;;;9.02;6.90;;;;;;;;;;6217406;28;20057;-78
2021/04/13 04:41:44;;;;;;;10.10;7.55;;;0.30;99.90;;;;;;6200873;28;20058;-78
2021/04/13 04:45:16;;;;;;;11.55;8.30;;;0.80;99.90;;;;;;6201330;28;20408;-78
2021/04/13 04:48:35;;;;;;;11.02;7.13;;;0.30;99.90;;;;;;6218010;28;20407;-78
2021/04/13 04:51:36;;;;;;;27.17;17.65;;;0.30;99.90;;;;;;6217573;28;20104;-79
2021/04/13 04:54:37;;;;;;;15.88;11.57;;;1.20;99.90;;;;;;6217565;28;20026;-77
2021/04/13 04:57:37;;;;;;;12.00;8.93;;;0.50;99.90;;;;;;6200826;28;20041;-78
2021/04/13 05:00:38;;;;;;;13.65;9.23;;;0.70;99.90;;;;;;6217115;28;20065;-78
2021/04/13 05:03:42;;;;;;;10.63;7.25;;;0.50;99.90;;;;;;6217345;28;20080;-78
2021/04/13 05:06:42;;;;;;;11.95;7.63;;;0.90;99.90;;;;;;6185746;28;20477;-78
2021/04/13 05:09:43;;;;;;;10.50;7.60;;;0.90;99.90;;;;;;6217342;28;20029;-78
2021/04/13 05:12:43;;;;;;;13.93;7.78;;;1.70;99.90;;;;;;6216617;28;20488;-78
2021/04/13 05:15:44;;;;;;;11.05;8.18;;;0.80;99.90;;;;;;6216813;28;20384;-78
2021/04/13 05:18:45;;;;;;;14.57;10.30;;;1.40;99.90;;;;;;6200731;28;20060;-78
2021/04/13 05:21:45;;;;;;;12.30;8.20;;;0.80;99.90;;;;;;6217086;28;20030;-78
2021/04/13 05:24:46;;;;;;;10.57;7.57;;;0.90;99.90;;;;;;6218612;28;20038;-78
2021/04/13 05:27:47;;;;;;;9.52;7.47;;;1.50;99.90;;;;;;6185151;28;20026;-78
2021/04/13 05:30:49;;;;;;;8.93;6.85;;;1.80;99.90;;;;;;6216720;28;20034;-78
2021/04/13 05:33:49;;;;;;;13.93;8.73;;;2.50;99.90;;;;;;6216737;28;20075;-78
2021/04/13 05:36:51;;;;;;;12.50;8.80;;;2.10;99.90;;;;;;6216280;28;20046;-78
2021/04/13 05:39:52;;;;;;;23.63;13.70;;;2.70;99.90;;;;;;6200519;28;20504;-78
2021/04/13 05:42:56;;;;;;;531.67;193.45;;;2.40;99.90;;;;;;6216599;28;20038;-78
2021/04/13 05:45:59;;;;;;;21.05;13.70;;;2.20;99.90;;;;;;6216633;28;20056;-78
2021/04/13 05:48:59;;;;;;;9.20;7.30;;;2.90;99.90;;;;;;6200550;28;20499;-78
2021/04/13 05:52:00;;;;;;;9.90;6.75;;;3.10;99.90;;;;;;6216658;28;20042;-78
2021/04/13 05:55:01;;;;;;;10.35;6.68;;;4.70;99.90;;;;;;6185345;28;20523;-78
2021/04/13 05:58:11;;;;;;;11.75;8.10;;;4.90;98.30;;;;;;6216408;28;20034;-78
2021/04/13 06:01:12;;;;;;;10.32;8.02;;;;;;;;;;6186515;28;20506;-78
2021/04/13 06:04:13;;;;;;;9.88;6.53;;;5.40;96.50;;;;;;6216471;28;20026;-79
2021/04/13 06:07:14;;;;;;;12.27;7.50;;;5.90;97.60;;;;;;6216468;28;20464;-78
2021/04/13 06:10:15;;;;;;;8.73;6.25;;;6.20;96.40;;;;;;6218047;28;20033;-79
2021/04/13 06:13:16;;;;;;;16.80;8.63;;;6.30;94.40;;;;;;6216380;28;20376;-79
2021/04/13 06:16:19;;;;;;;10.20;7.28;;;7.30;94.40;;;;;;6217408;28;20037;-79
2021/04/13 06:19:20;;;;;;;8.40;6.75;;;7.70;93.70;;;;;;6220598;28;20037;-79
2021/04/13 06:22:21;;;;;;;7.43;6.18;;;7.60;93.20;;;;;;6222529;28;20464;-79
2021/04/13 06:25:24;;;;;;;9.38;6.57;;;7.60;92.40;;;;;;6210204;28;20030;-79
2021/04/13 06:28:26;;;;;;;7.47;6.10;;;7.50;93.40;;;;;;6188765;28;20080;-79
2021/04/13 06:31:26;;;;;;;9.15;5.70;;;7.20;92.00;;;;;;6222204;28;20054;-79
2021/04/13 06:34:27;;;;;;;9.20;6.95;;;7.00;91.40;;;;;;6222591;28;20103;-79
2021/04/13 06:37:28;;;;;;;6.45;5.60;;;7.60;96.50;;;;;;6220002;28;20048;-79
2021/04/13 06:40:49;;;;;;;7.15;6.00;;;8.20;99.30;;;;;;6188266;28;20042;-79
2021/04/13 06:43:55;;;;;;;28.05;18.80;;;9.30;97.70;;;;;;6222213;28;20151;-79
2021/04/13 06:47:25;;;;;;;13.18;8.35;;;9.70;97.20;;;;;;6222267;28;20113;-79
2021/04/13 06:50:48;;;;;;;5.90;5.30;;;9.90;84.80;;;;;;6216021;28;20534;-79
2021/04/13 06:54:07;;;;;;;5.97;5.38;;;10.20;77.90;;;;;;6220652;28;20030;-79
2021/04/13 06:57:23;;;;;;;9.93;5.65;;;10.00;79.90;;;;;;6221447;28;20046;-79
2021/04/13 07:00:29;;;;;;;6.10;5.05;;;10.40;82.80;;;;;;6221517;28;20033;-79
2021/04/13 07:03:48;;;;;;;6.25;5.18;;;10.70;77.40;;;;;;6219943;28;20026;-79
2021/04/13 07:06:57;;;;;;;9.30;6.43;;;10.90;79.00;;;;;;6221738;28;20076;-79
2021/04/13 07:10:03;;;;;;;8.32;6.88;;;10.90;73.30;;;;;;6204190;28;20033;-79
2021/04/13 07:13:19;;;;;;;19.30;12.20;;;11.30;91.60;;;;;;6188843;28;20065;-79
2021/04/13 07:16:37;;;;;;;16.75;12.05;;;11.70;90.20;;;;;;6219441;28;20057;-79
2021/04/13 07:19:47;;;;;;;6.70;5.15;;;12.10;85.50;;;;;;6219107;28;20065;-79
2021/04/13 07:23:31;;;;;;;6.97;4.95;;;12.00;87.80;;;;;;6187886;28;20030;-79
2021/04/13 07:26:35;;;;;;;7.40;5.90;;;12.50;68.20;;;;;;6202648;28;20034;-79
2021/04/13 07:30:05;;;;;;;7.55;6.03;;;12.80;70.40;;;;;;6218231;28;20436;-79
2021/04/13 07:33:07;;;;;;;6.43;5.15;;;12.90;69.30;;;;;;6219378;28;20049;-79
2021/04/13 07:36:29;;;;;;;8.25;5.70;;;13.30;66.90;;;;;;6218553;28;20037;-80
2021/04/13 07:39:30;;;;;;;5.22;4.55;;;13.50;63.90;;;;;;6219237;28;20064;-79
2021/04/13 07:42:34;;;;;;;4.97;4.47;;;13.50;66.70;;;;;;6218796;28;20038;-80
2021/04/13 07:46:12;;;;;;;8.05;4.80;;;13.60;67.90;;;;;;6202905;28;20172;-79
2021/04/13 07:49:21;;;;;;;5.50;4.90;;;13.40;62.90;;;;;;6220226;28;20041;-79
2021/04/13 07:52:51;;;;;;;5.40;4.82;;;13.80;66.60;;;;;;6218885;28;20034;-79
2021/04/13 07:56:17;;;;;;;5.75;5.03;;;13.90;62.30;;;;;;6202760;28;20039;-79
2021/04/13 07:59:30;;;;;;;6.70;5.38;;;14.30;65.10;;;;;;6199090;28;20128;-79
2021/04/13 08:02:31;;;;;;;5.80;5.03;;;14.40;64.00;;;;;;6218487;28;20026;-79
2021/04/13 08:05:59;;;;;;;6.15;5.45;;;14.10;66.40;;;;;;6205747;28;20037;-79
2021/04/13 08:09:17;;;;;;;8.15;5.30;;;13.70;66.20;;;;;;6215205;28;20038;-79
2021/04/13 08:12:18;;;;;;;7.90;5.03;;;13.90;65.80;;;;;;6218118;28;20480;-79
2021/04/13 08:15:41;;;;;;;6.68;4.78;;;14.20;67.00;;;;;;6234142;28;20502;-80
2021/04/13 08:18:42;;;;;;;;;;;13.70;67.00;;;;;;6218466;28;20481;-79
2021/04/13 08:21:43;;;;;;;7.93;4.78;;;13.20;68.10;;;;;;6218022;28;19913;-79
2021/04/13 08:24:52;;;;;;;7.40;5.38;;;12.40;70.10;;;;;;6201445;28;20423;-79
2021/04/13 08:27:52;;;;;;;5.63;5.07;;;11.90;96.40;;;;;;6218117;28;20041;-79
2021/04/13 08:34:44;;;;;;;6.75;5.47;;;12.00;71.10;;;;;;6219376;28;20552;-80
2021/04/13 08:37:53;;;;;;;5.97;5.20;;;11.40;72.50;;;;;;6217592;28;20452;-79
2021/04/13 08:41:11;;;;;;;7.20;5.70;;;10.00;91.00;;;;;;6181065;28;20442;-80
2021/04/13 08:44:34;;;;;;;7.28;5.38;;;9.80;77.00;;;;;;6209017;28;20088;-79
2021/04/13 08:47:43;;;;;;;7.55;6.13;;;9.50;78.60;;;;;;6194875;28;20463;-79
2021/04/13 08:50:48;;;;;;;5.82;4.97;;;9.60;82.60;;;;;;6209769;28;20037;-79
2021/04/13 08:54:25;;;;;;;7.63;5.57;;;9.70;93.00;;;;;;6177903;28;20540;-79
2021/04/13 08:57:36;;;;;;;7.30;5.45;;;9.70;80.40;;;;;;6193062;28;20086;-79
2021/04/13 09:00:45;;;;;;;8.18;5.93;;;10.20;99.20;;;;;;6208736;28;20030;-79
2021/04/13 09:03:46;;;;;;;8.07;6.60;;;11.20;92.60;;;;;;6179397;28;20503;-79
2021/04/13 09:06:46;;;;;;;5.78;5.15;;;11.40;92.40;;;;;;6193458;28;20027;-79
2021/04/13 09:09:47;;;;;;;6.38;5.43;;;;;;;;;;6194697;28;20121;-79
2021/04/13 09:12:52;;;;;;;6.88;5.63;;;12.00;84.70;;;;;;6194402;28;20026;-79
2021/04/13 09:16:11;;;;;;;7.45;5.80;;;12.30;71.30;;;;;;6193183;28;20066;-80
2021/04/13 09:19:26;;;;;;;6.57;5.10;;;12.50;67.60;;;;;;6209395;28;20070;-80
2021/04/13 09:22:29;;;;;;;5.78;5.18;;;11.90;70.50;;;;;;6192792;28;20023;-80
2021/04/13 09:25:33;;;;;;;6.72;5.00;;;11.30;89.10;;;;;;6193359;28;20023;-80
2021/04/13 09:28:55;;;;;;;6.47;5.65;;;11.30;72.60;;;;;;6193318;28;20431;-79
2021/04/13 09:31:56;;;;;;;8.43;5.17;;;11.00;69.10;;;;;;6193234;28;20038;-79
2021/04/13 09:35:00;;;;;;;7.90;5.72;;;10.90;73.20;;;;;;6193212;28;20797;-79
2021/04/13 09:38:34;;;;;;;7.18;5.53;;;10.70;75.20;;;;;;6194170;28;20073;-80
2021/04/13 09:41:43;;;;;;;6.78;5.45;;;10.80;72.20;;;;;;6211553;28;20053;-80
2021/04/13 09:44:50;;;;;;;7.65;5.93;;;11.00;74.40;;;;;;6203016;28;20023;-80
2021/04/13 09:48:15;;;;;;;6.63;5.95;;;9.80;94.10;;;;;;6194235;28;20030;-79
2021/04/13 09:51:21;;;;;;;8.15;5.88;;;9.30;94.50;;;;;;6196120;28;20089;-79
2021/04/13 09:54:30;;;;;;;8.63;5.90;;;8.80;95.90;;;;;;6198326;28;20034;-79
2021/04/13 09:57:31;;;;;;;6.68;5.80;;;;;;;;;;6198021;28;20045;-79
2021/04/13 10:00:47;;;;;;;8.35;5.63;;;7.90;96.70;;;;;;6198905;28;20026;-79
2021/04/13 10:04:25;;;;;;;5.80;5.20;;;8.40;94.00;;;;;;6214135;28;20038;-79
2021/04/13 10:07:27;;;;;;;6.93;6.20;;;8.10;92.70;;;;;;6198785;28;20034;-79
2021/04/13 10:10:48;;;;;;;9.43;6.80;;;8.10;94.50;;;;;;6197419;28;20444;-79
2021/04/13 10:14:08;;;;;;;6.95;6.00;;;8.20;93.80;;;;;;6198023;28;20030;-79
2021/04/13 10:17:43;;;;;;;5.35;4.47;;;8.00;92.60;;;;;;6198715;28;20563;-79
2021/04/13 10:21:21;;;;;;;4.65;4.15;;;7.90;91.40;;;;;;6199852;28;20030;-80
2021/04/13 10:24:31;;;;;;;5.95;4.15;;;8.20;89.90;;;;;;6216171;28;20030;-80
2021/04/13 10:27:53;;;;;;;5.18;4.68;;;8.10;89.20;;;;;;6236956;28;20163;-79
2021/04/13 10:31:15;;;;;;;7.60;5.03;;;7.70;89.70;;;;;;6221994;28;20069;-80
2021/04/13 10:35:08;;;;;;;4.80;4.30;;;7.40;91.70;;;;;;6237118;28;20033;-79
2021/04/13 10:38:32;;;;;;;5.72;4.57;;;7.00;91.40;;;;;;6154760;28;20046;-79
2021/04/13 10:42:10;;;;;;;5.13;4.63;;;7.00;93.10;;;;;;6195906;28;20093;-79
2021/04/13 10:45:17;;;;;;;5.50;4.18;;;7.10;93.10;;;;;;6197471;28;20565;-79
2021/04/13 10:48:32;;;;;;;6.32;5.18;;;6.60;92.70;;;;;;6212011;28;20069;-79
2021/04/13 10:52:08;;;;;;;6.30;4.60;;;6.10;98.90;;;;;;6199027;28;20026;-79
2021/04/13 10:55:15;;;;;;;7.00;4.78;;;4.80;93.80;;;;;;6196107;28;20121;-79
2021/04/13 10:58:53;;;;;;;6.80;4.50;;;6.20;95.10;;;;;;6196301;28;20492;-79
2021/04/13 11:02:09;;;;;;;5.18;4.53;;;7.00;95.40;;;;;;6212487;28;20030;-79
2021/04/13 11:05:40;;;;;;;6.18;4.80;;;6.90;93.20;;;;;;6196670;28;20038;-79
2021/04/13 11:08:56;;;;;;;4.90;4.32;;;6.50;95.20;;;;;;6197123;28;20362;-79
2021/04/13 11:12:29;;;;;;;5.10;4.50;;;6.90;97.60;;;;;;6179498;28;20383;-79
2021/04/13 11:15:52;;;;;;;5.75;4.35;;;6.30;95.30;;;;;;6189008;28;20038;-79
2021/04/13 11:18:58;;;;;;;7.07;4.90;;;6.10;96.40;;;;;;6195636;28;20476;-79
2021/04/13 11:22:16;;;;;;;7.18;5.03;;;5.90;95.60;;;;;;6196661;28;20033;-79
2021/04/13 11:25:40;;;;;;;4.75;4.30;;;6.00;99.90;;;;;;6195411;28;20030;-79
2021/04/13 11:28:55;;;;;;;5.03;4.43;;;5.70;99.90;;;;;;6185798;28;20065;-79
2021/04/13 11:32:14;;;;;;;5.55;4.55;;;5.60;99.90;;;;;;6211578;28;20026;-79
2021/04/13 11:35:45;;;;;;;5.18;4.57;;;5.60;99.90;;;;;;6196528;28;20072;-79
2021/04/13 11:38:52;;;;;;;5.93;4.50;;;5.20;99.90;;;;;;6185355;28;20074;-79
2021/04/13 11:42:08;;;;;;;10.13;6.60;;;5.30;98.30;;;;;;6178630;28;20449;-79
2021/04/13 11:45:45;;;;;;;7.32;4.68;;;5.10;99.90;;;;;;6196834;28;20038;-80
2021/04/13 11:49:07;;;;;;;4.93;4.40;;;5.00;99.90;;;;;;6197054;28;20033;-79
2021/04/13 11:52:20;;;;;;;5.38;4.80;;;5.10;99.90;;;;;;6194637;28;20047;-79
2021/04/13 11:55:27;;;;;;;6.18;5.00;;;5.10;99.90;;;;;;6194701;28;20037;-80
2021/04/13 11:58:33;;;;;;;9.50;6.22;;;4.90;99.90;;;;;;6196205;28;20042;-80
2021/04/13 12:01:35;;;;;;;9.70;6.18;;;4.90;99.90;;;;;;6179015;28;20461;-79
2021/04/13 12:04:40;;;;;;;35.03;15.35;;;5.40;99.90;;;;;;6208744;28;20389;-79
2021/04/13 12:07:50;;;;;;;8.05;6.18;;;5.80;99.90;;;;;;6194057;28;20030;-79
2021/04/13 12:10:53;;;;;;;5.25;4.53;;;6.10;99.90;;;;;;6210132;28;20034;-79
2021/04/13 12:13:54;;;;;;;5.78;4.72;;;6.40;99.90;;;;;;6178643;28;20034;-79
2021/04/13 12:16:54;;;;;;;5.13;4.38;;;5.50;99.90;;;;;;6193819;28;20551;-79
2021/04/13 12:20:27;;;;;;;5.28;4.60;;;5.60;99.90;;;;;;6195084;28;20416;-79
2021/04/13 12:23:28;;;;;;;5.65;4.20;;;5.50;99.90;;;;;;6195157;28;20449;-79
2021/04/13 12:26:28;;;;;;;4.43;3.80;;;5.40;99.90;;;;;;6194952;28;20026;-79
2021/04/13 12:29:33;;;;;;;5.30;4.22;;;5.80;99.90;;;;;;6195532;28;20042;-79
2021/04/13 12:32:41;;;;;;;4.20;3.80;;;5.00;99.90;;;;;;6193225;28;20038;-79
2021/04/13 12:35:52;;;;;;;4.10;3.67;;;5.60;99.90;;;;;;6195346;28;20366;-80
2021/04/13 12:38:58;;;;;;;4.63;4.05;;;5.00;99.90;;;;;;6209793;28;20041;-79
2021/04/13 12:41:59;;;;;;;6.45;4.60;;;5.30;99.90;;;;;;6209114;28;20043;-79
2021/04/13 12:45:42;;;;;;;5.93;4.20;;;4.90;99.90;;;;;;6180803;28;20043;-79
2021/04/13 12:48:44;;;;;;;5.77;4.90;;;5.00;99.90;;;;;;6142681;29;20113;-79
2021/04/13 12:51:54;;;;;;;5.43;4.15;;;5.20;99.90;;;;;;6127363;29;20534;-79
2021/04/13 12:54:55;;;;;;;3.97;3.50;;;6.10;99.90;;;;;;6126800;29;20027;-79
2021/04/13 12:57:57;;;;;;;3.83;3.42;;;5.90;99.90;;;;;;6126636;28;20081;-79
2021/04/13 13:00:58;;;;;;;3.95;3.55;;;6.30;99.00;;;;;;6126881;29;20102;-79
2021/04/13 13:04:19;;;;;;;6.80;4.35;;;6.70;97.60;;;;;;6126805;29;20039;-80
2021/04/13 13:07:22;;;;;;;9.38;5.90;;;6.80;94.40;;;;;;6128462;29;20027;-79
2021/04/13 13:10:37;;;;;;;6.03;4.50;;;6.90;96.90;;;;;;6127250;29;20086;-79
2021/04/13 13:13:38;;;;;;;5.90;3.40;;;6.20;96.20;;;;;;6127747;29;20062;-79
2021/04/13 13:16:39;;;;;;;3.50;3.20;;;7.70;95.20;;;;;;6126960;29;20494;-79
2021/04/13 13:19:49;;;;;;;5.32;3.80;;;7.50;91.20;;;;;;6126767;29;20027;-80
2021/04/13 13:22:50;;;;;;;3.70;3.40;;;7.70;93.60;;;;;;6160754;28;20053;-80
2021/04/13 13:25:52;;;;;;;5.75;3.60;;;;;;;;;;6193315;28;20464;-79
2021/04/13 13:28:52;;;;;;;4.70;3.65;;;8.10;95.00;;;;;;6197618;28;20034;-79
2021/04/13 13:31:53;;;;;;;3.65;3.20;;;8.70;92.50;;;;;;6214204;28;20439;-79
2021/04/13 13:34:56;;;;;;;3.30;3.00;;;7.80;96.20;;;;;;6213587;28;20366;-79
2021/04/13 13:37:58;;;;;;;3.47;3.17;;;8.00;86.80;;;;;;6213429;28;20041;-80
2021/04/13 13:41:03;;;;;;;5.55;3.42;;;7.80;98.40;;;;;;6196816;28;20058;-79
2021/04/13 13:44:13;;;;;;;5.20;3.90;;;7.90;99.90;;;;;;6181797;28;20118;-79
2021/04/13 13:47:21;;;;;;;3.60;2.92;;;8.20;92.90;;;;;;6197369;28;20035;-79
2021/04/13 13:50:34;;;;;;;5.50;3.40;;;7.90;89.60;;;;;;6197613;28;20077;-79
2021/04/13 13:53:45;;;;;;;3.85;3.28;;;7.90;85.80;;;;;;6197581;28;20042;-79
2021/04/13 13:56:46;;;;;;;3.47;3.17;;;8.00;92.70;;;;;;6182006;28;20038;-79
2021/04/13 13:59:47;;;;;;;6.10;5.10;;;7.80;99.90;;;;;;6197113;28;20370;-80
2021/04/13 14:02:48;;;;;;;7.70;5.40;;;7.10;99.90;;;;;;6197333;28;20035;-79
2021/04/13 14:05:51;;;;;;;7.45;5.82;;;6.40;99.90;;;;;;6198356;28;20038;-79
2021/04/13 14:08:52;;;;;;;9.35;6.25;;;6.20;99.90;;;;;;6197517;28;20074;-79
2021/04/13 14:11:53;;;;;;;9.27;6.72;;;;;;;;;;6196889;28;20070;-79
2021/04/13 14:14:54;;;;;;;9.48;7.55;;;5.60;99.90;;;;;;6196708;28;20076;-79
2021/04/13 14:18:08;;;;;;;10.00;7.72;;;5.40;99.60;;;;;;6180420;28;20046;-79
2021/04/13 14:21:17;;;;;;;11.27;9.32;;;5.50;99.90;;;;;;6196262;28;20072;-79
2021/04/13 14:24:31;;;;;;;10.85;8.38;;;5.00;99.90;;;;;;6196946;28;20566;-79
2021/04/13 14:27:31;;;;;;;9.57;8.02;;;4.60;99.90;;;;;;6186760;28;20465;-79
2021/04/13 14:30:32;;;;;;;11.38;8.90;;;4.60;99.90;;;;;;6198207;28;20046;-79
2021/04/13 14:33:32;;;;;;;11.90;8.90;;;4.50;99.90;;;;;;6196483;28;20034;-79
2021/04/13 14:36:35;;;;;;;11.75;8.45;;;5.60;99.90;;;;;;6196498;28;20887;-79
2021/04/13 14:39:36;;;;;;;10.82;8.40;;;4.80;99.90;;;;;;6189407;28;20053;-79
2021/04/13 14:42:37;;;;;;;11.43;7.75;;;5.50;99.90;;;;;;6212992;28;20418;-78
2021/04/13 14:45:38;;;;;;;9.55;7.82;;;4.90;99.90;;;;;;6216165;28;20084;-79
2021/04/13 14:48:38;;;;;;;14.10;9.10;;;5.10;99.60;;;;;;6190891;28;20104;-79
2021/04/13 14:51:39;;;;;;;12.02;9.88;;;4.90;99.90;;;;;;6227374;28;20036;-79
2021/04/13 14:54:40;;;;;;;11.68;8.80;;;4.70;99.90;;;;;;6219920;28;20029;-79
2021/04/13 14:57:40;;;;;;;17.17;10.23;;;5.00;99.90;;;;;;6219808;28;20038;-79
2021/04/13 15:00:41;;;;;;;18.35;11.07;;;4.20;99.90;;;;;;6219678;28;20033;-79
2021/04/13 15:03:42;;;;;;;33.30;14.27;;;5.10;99.90;;;;;;6219594;28;20663;-79
2021/04/13 15:06:43;;;;;;;23.90;12.38;;;4.00;99.90;;;;;;6219693;28;20060;-79
2021/04/13 15:09:43;;;;;;;16.17;9.82;;;5.00;99.90;;;;;;6219864;28;20026;-79
2021/04/13 15:12:44;;;;;;;9.90;7.45;;;4.20;99.90;;;;;;6211731;28;20034;-78
2021/04/13 15:15:45;;;;;;;10.07;7.13;;;3.40;99.90;;;;;;6221121;28;20063;-79
2021/04/13 15:18:45;;;;;;;12.68;7.18;;;4.10;99.90;;;;;;6199674;28;20353;-79
2021/04/13 15:21:51;;;;;;;9.65;7.43;;;4.10;99.90;;;;;;6219441;28;20056;-79
2021/04/13 15:24:53;;;;;;;11.25;8.48;;;3.80;99.90;;;;;;6219540;28;20453;-79
2021/04/13 15:27:55;;;;;;;8.90;8.00;;;4.60;99.90;;;;;;6218830;28;20037;-79
2021/04/13 15:30:55;;;;;;;8.77;7.87;;;4.60;99.90;;;;;;6219237;28;20423;-79
2021/04/13 15:33:57;;;;;;;10.13;7.50;;;4.80;99.90;;;;;;6218703;28;20032;-80
2021/04/13 15:36:58;;;;;;;7.87;7.07;;;5.00;99.90;;;;;;6218696;28;20041;-79
2021/04/13 15:39:59;;;;;;;8.30;6.40;;;4.50;99.90;;;;;;6218750;28;20180;-79
2021/04/13 15:43:25;;;;;;;8.75;6.50;;;5.10;99.90;;;;;;6219189;28;20029;-79
2021/04/13 15:46:31;;;;;;;11.13;7.78;;;4.80;99.90;;;;;;6219183;28;20032;-79
2021/04/13 15:49:33;;;;;;;9.48;6.38;;;5.40;99.90;;;;;;6212266;28;20453;-79
2021/04/13 15:52:33;;;;;;;7.43;6.63;;;5.70;99.90;;;;;;6215100;28;20026;-79
2021/04/13 15:55:34;;;;;;;7.95;6.20;;;5.60;99.90;;;;;;6218502;28;20086;-79
2021/04/13 15:58:36;;;;;;;7.95;6.82;;;5.10;99.90;;;;;;6219858;28;20105;-79
2021/04/13 16:01:37;;;;;;;7.72;6.80;;;5.70;99.90;;;;;;6218347;28;20038;-79
2021/04/13 16:04:38;;;;;;;7.15;6.43;;;5.40;99.90;;;;;;6218305;28;20037;-79
2021/04/13 16:07:38;;;;;;;9.20;7.45;;;5.50;99.50;;;;;;6214771;28;20083;-79
2021/04/13 16:10:39;;;;;;;34.75;17.02;;;6.00;99.90;;;;;;6219698;28;20034;-79
2021/04/13 16:13:40;;;;;;;26.45;15.77;;;5.30;99.90;;;;;;6201574;28;20388;-79
2021/04/13 16:16:41;;;;;;;8.98;7.60;;;5.40;99.90;;;;;;6201456;28;20120;-79
2021/04/13 16:19:42;;;;;;;9.13;7.85;;;6.20;99.90;;;;;;6186332;28;20021;-79
2021/04/13 16:22:43;;;;;;;8.57;7.18;;;5.60;99.90;;;;;;6210298;28;20057;-79
2021/04/13 16:25:44;;;;;;;7.88;6.47;;;5.60;99.60;;;;;;6209530;28;20040;-79
2021/04/13 16:28:45;;;;;;;6.75;5.85;;;5.70;99.90;;;;;;6217854;28;20034;-79
2021/04/13 16:31:50;;;;;;;6.45;5.78;;;6.10;99.20;;;;;;6205682;28;20021;-79
2021/04/13 16:34:53;;;;;;;7.97;6.40;;;5.60;99.90;;;;;;6201398;28;20037;-79
2021/04/13 16:37:53;;;;;;;11.25;6.10;;;5.50;99.90;;;;;;6189968;28;20471;-79
2021/04/13 16:40:56;;;;;;;6.18;5.57;;;5.40;98.00;;;;;;6217353;28;20045;-79